sensor_id;sensor_type;location;lat;lon;timestamp;temperature;humidity
3752;DHT22;50827;47.014;7.652;2023-03-23T00:01:13;10.70;99.90
3752;DHT22;50827;47.014;7.652;2023-03-23T00:03:41;10.80;99.90
3752;DHT22;50827;47.014;7.652;2023-03-23T00:06:07;10.80;99.90
3752;DHT22;50827;47.014;7.652;2023-03-23T00:08:35;10.70;99.90
3752;DHT22;50827;47.014;7.652;2023-03-23T00:11:19;10.70;99.90
3752;DHT22;50827;47.014;7.652;2023-03-23T00:13:46;10.70;99.90
3752;DHT22;50827;47.014;7.652;2023-03-23T00:16:13;10.60;99.90
3752;DHT22;50827;47.014;7.652;2023-03-23T00:18:48;10.60;99.90
3752;DHT22;50827;47.014;7.652;2023-03-23T00:21:24;10.60;99.90
3752;DHT22;50827;47.014;7.652;2023-03-23T00:23:53;10.60;99.90
3752;DHT22;50827;47.014;7.652;2023-03-23T00:26:19;10.50;99.90
3752;DHT22;50827;47.014;7.652;2023-03-23T00:28:45;10.50;99.90
3752;DHT22;50827;47.014;7.652;2023-03-23T00:31:12;10.50;99.90
3752;DHT22;50827;47.014;7.652;2023-03-23T00:33:38;10.60;99.90
3752;DHT22;50827;47.014;7.652;2023-03-23T00:36:08;10.60;99.90
3752;DHT22;50827;47.014;7.652;2023-03-23T00:38:34;10.70;99.90
3752;DHT22;50827;47.014;7.652;2023-03-23T00:41:01;10.60;99.90
3752;DHT22;50827;47.014;7.652;2023-03-23T00:43:29;10.60;99.90
3752;DHT22;50827;47.014;7.652;2023-03-23T00:45:56;10.60;99.90
3752;DHT22;50827;47.014;7.652;2023-03-23T00:48:23;10.60;99.90
3752;DHT22;50827;47.014;7.652;2023-03-23T00:50:50;10.60;99.90
3752;DHT22;50827;47.014;7.652;2023-03-23T00:53:17;10.60;99.90
3752;DHT22;50827;47.014;7.652;2023-03-23T00:55:44;10.60;99.90
3752;DHT22;50827;47.014;7.652;2023-03-23T00:58:11;10.60;99.90
3752;DHT22;50827;47.014;7.652;2023-03-23T01:00:37;10.60;99.90
3752;DHT22;50827;47.014;7.652;2023-03-23T01:03:03;10.60;99.90
3752;DHT22;50827;47.014;7.652;2023-03-23T01:05:33;10.60;99.90
3752;DHT22;50827;47.014;7.652;2023-03-23T01:07:59;10.60;99.90
3752;DHT22;50827;47.014;7.652;2023-03-23T01:10:25;10.60;99.90
3752;DHT22;50827;47.014;7.652;2023-03-23T01:12:54;10.60;99.90
3752;DHT22;50827;47.014;7.652;2023-03-23T01:15:20;10.70;99.90
3752;DHT22;50827;47.014;7.652;2023-03-23T01:17:46;10.70;99.90
3752;DHT22;50827;47.014;7.652;2023-03-23T01:20:14;10.70;99.90
3752;DHT22;50827;47.014;7.652;2023-03-23T01:22:41;10.70;99.90
3752;DHT22;50827;47.014;7.652;2023-03-23T01:25:08;10.70;99.90
3752;DHT22;50827;47.014;7.652;2023-03-23T01:27:34;10.70;99.90
3752;DHT22;50827;47.014;7.652;2023-03-23T01:30:00;10.70;99.90
3752;DHT22;50827;47.014;7.652;2023-03-23T01:32:26;10.70;99.90
3752;DHT22;50827;47.014;7.652;2023-03-23T01:34:51;10.70;99.90
3752;DHT22;50827;47.014;7.652;2023-03-23T01:37:17;10.70;99.90
3752;DHT22;50827;47.014;7.652;2023-03-23T01:39:43;10.60;99.90
3752;DHT22;50827;47.014;7.652;2023-03-23T01:42:09;10.60;99.90
3752;DHT22;50827;47.014;7.652;2023-03-23T01:47:01;10.50;99.90
3752;DHT22;50827;47.014;7.652;2023-03-23T01:49:32;10.40;99.90
3752;DHT22;50827;47.014;7.652;2023-03-23T01:52:03;10.40;99.90
3752;DHT22;50827;47.014;7.652;2023-03-23T01:54:29;10.50;99.90
3752;DHT22;50827;47.014;7.652;2023-03-23T01:57:07;10.50;99.90
3752;DHT22;50827;47.014;7.652;2023-03-23T01:59:35;10.50;99.90
3752;DHT22;50827;47.014;7.652;2023-03-23T02:02:01;10.50;99.90
3752;DHT22;50827;47.014;7.652;2023-03-23T02:04:28;10.50;99.90
3752;DHT22;50827;47.014;7.652;2023-03-23T02:06:56;10.50;99.90
3752;DHT22;50827;47.014;7.652;2023-03-23T02:09:25;10.50;99.90
3752;DHT22;50827;47.014;7.652;2023-03-23T02:11:52;10.60;99.90
3752;DHT22;50827;47.014;7.652;2023-03-23T02:14:19;10.60;99.90
3752;DHT22;50827;47.014;7.652;2023-03-23T02:27:57;10.50;99.90
3752;DHT22;50827;47.014;7.652;2023-03-23T02:30:40;10.50;99.90
3752;DHT22;50827;47.014;7.652;2023-03-23T02:35:39;10.60;99.90
3752;DHT22;50827;47.014;7.652;2023-03-23T02:38:10;10.60;99.90
3752;DHT22;50827;47.014;7.652;2023-03-23T02:40:48;10.60;99.90
3752;DHT22;50827;47.014;7.652;2023-03-23T02:43:18;10.60;99.90
3752;DHT22;50827;47.014;7.652;2023-03-23T02:45:45;10.60;99.90
3752;DHT22;50827;47.014;7.652;2023-03-23T02:48:14;10.60;99.90
3752;DHT22;50827;47.014;7.652;2023-03-23T02:50:44;10.70;99.90
3752;DHT22;50827;47.014;7.652;2023-03-23T02:53:12;10.70;99.90
3752;DHT22;50827;47.014;7.652;2023-03-23T02:55:41;10.70;99.90
3752;DHT22;50827;47.014;7.652;2023-03-23T02:58:09;10.70;99.90
3752;DHT22;50827;47.014;7.652;2023-03-23T03:00:36;10.70;99.90
3752;DHT22;50827;47.014;7.652;2023-03-23T03:03:03;10.70;99.90
3752;DHT22;50827;47.014;7.652;2023-03-23T03:08:44;10.80;99.90
3752;DHT22;50827;47.014;7.652;2023-03-23T03:11:13;10.80;99.90
3752;DHT22;50827;47.014;7.652;2023-03-23T03:13:49;10.90;99.90
3752;DHT22;50827;47.014;7.652;2023-03-23T03:16:31;10.90;99.90
3752;DHT22;50827;47.014;7.652;2023-03-23T03:19:10;10.90;99.90
3752;DHT22;50827;47.014;7.652;2023-03-23T03:21:42;10.90;99.90
3752;DHT22;50827;47.014;7.652;2023-03-23T03:24:11;10.80;99.90
3752;DHT22;50827;47.014;7.652;2023-03-23T03:26:43;10.80;99.90
3752;DHT22;50827;47.014;7.652;2023-03-23T03:29:15;10.80;99.90
3752;DHT22;50827;47.014;7.652;2023-03-23T03:31:44;10.80;99.90
3752;DHT22;50827;47.014;7.652;2023-03-23T03:34:14;10.80;99.90
3752;DHT22;50827;47.014;7.652;2023-03-23T03:36:47;10.80;99.90
3752;DHT22;50827;47.014;7.652;2023-03-23T03:39:14;10.80;99.90
3752;DHT22;50827;47.014;7.652;2023-03-23T03:41:41;10.90;99.90
3752;DHT22;50827;47.014;7.652;2023-03-23T03:44:07;10.80;99.90
3752;DHT22;50827;47.014;7.652;2023-03-23T03:46:34;10.80;99.90
3752;DHT22;50827;47.014;7.652;2023-03-23T03:49:02;10.80;99.90
3752;DHT22;50827;47.014;7.652;2023-03-23T03:51:29;10.90;99.90
3752;DHT22;50827;47.014;7.652;2023-03-23T03:53:55;10.90;99.90
3752;DHT22;50827;47.014;7.652;2023-03-23T03:56:22;10.90;99.90
3752;DHT22;50827;47.014;7.652;2023-03-23T03:58:48;10.90;99.90
3752;DHT22;50827;47.014;7.652;2023-03-23T04:01:16;10.90;99.90
3752;DHT22;50827;47.014;7.652;2023-03-23T04:03:42;11.00;99.90
3752;DHT22;50827;47.014;7.652;2023-03-23T04:06:08;11.00;99.90
3752;DHT22;50827;47.014;7.652;2023-03-23T04:08:36;10.90;99.90
3752;DHT22;50827;47.014;7.652;2023-03-23T04:11:03;10.80;99.90
3752;DHT22;50827;47.014;7.652;2023-03-23T04:13:29;10.80;99.90
3752;DHT22;50827;47.014;7.652;2023-03-23T04:15:55;10.80;99.90
3752;DHT22;50827;47.014;7.652;2023-03-23T04:18:21;10.80;99.90
3752;DHT22;50827;47.014;7.652;2023-03-23T04:20:48;10.80;99.90
3752;DHT22;50827;47.014;7.652;2023-03-23T04:23:16;10.80;99.90
3752;DHT22;50827;47.014;7.652;2023-03-23T04:25:52;10.70;99.90
3752;DHT22;50827;47.014;7.652;2023-03-23T04:28:19;10.70;99.90
3752;DHT22;50827;47.014;7.652;2023-03-23T04:30:49;10.70;99.90
3752;DHT22;50827;47.014;7.652;2023-03-23T04:33:18;10.70;99.90
3752;DHT22;50827;47.014;7.652;2023-03-23T04:35:44;10.60;99.90
3752;DHT22;50827;47.014;7.652;2023-03-23T04:38:12;10.60;99.90
3752;DHT22;50827;47.014;7.652;2023-03-23T04:40:40;10.60;99.90
3752;DHT22;50827;47.014;7.652;2023-03-23T04:43:06;10.60;99.90
3752;DHT22;50827;47.014;7.652;2023-03-23T04:45:33;10.50;99.90
3752;DHT22;50827;47.014;7.652;2023-03-23T04:47:59;10.50;99.90
3752;DHT22;50827;47.014;7.652;2023-03-23T04:50:28;10.40;99.90
3752;DHT22;50827;47.014;7.652;2023-03-23T04:52:56;10.50;99.90
3752;DHT22;50827;47.014;7.652;2023-03-23T04:55:24;10.50;99.90
3752;DHT22;50827;47.014;7.652;2023-03-23T04:57:50;10.50;99.90
3752;DHT22;50827;47.014;7.652;2023-03-23T05:00:16;10.60;99.90
3752;DHT22;50827;47.014;7.652;2023-03-23T05:02:46;10.50;99.90
3752;DHT22;50827;47.014;7.652;2023-03-23T05:05:13;10.60;99.90
3752;DHT22;50827;47.014;7.652;2023-03-23T05:07:40;10.60;99.90
3752;DHT22;50827;47.014;7.652;2023-03-23T05:10:08;10.60;99.90
3752;DHT22;50827;47.014;7.652;2023-03-23T05:12:34;10.60;99.90
3752;DHT22;50827;47.014;7.652;2023-03-23T05:15:00;10.60;99.90
3752;DHT22;50827;47.014;7.652;2023-03-23T05:17:27;10.70;99.90
3752;DHT22;50827;47.014;7.652;2023-03-23T05:19:53;10.70;99.90
3752;DHT22;50827;47.014;7.652;2023-03-23T05:22:19;10.70;99.90
3752;DHT22;50827;47.014;7.652;2023-03-23T05:24:47;10.60;99.90
3752;DHT22;50827;47.014;7.652;2023-03-23T05:27:13;10.60;99.90
3752;DHT22;50827;47.014;7.652;2023-03-23T05:29:40;10.60;99.90
3752;DHT22;50827;47.014;7.652;2023-03-23T05:32:09;10.60;99.90
3752;DHT22;50827;47.014;7.652;2023-03-23T05:34:35;10.60;99.90
3752;DHT22;50827;47.014;7.652;2023-03-23T05:37:02;10.60;99.90
3752;DHT22;50827;47.014;7.652;2023-03-23T05:39:29;10.60;99.90
3752;DHT22;50827;47.014;7.652;2023-03-23T05:41:55;10.50;99.90
3752;DHT22;50827;47.014;7.652;2023-03-23T05:44:21;10.50;99.90
3752;DHT22;50827;47.014;7.652;2023-03-23T05:46:47;10.50;99.90
3752;DHT22;50827;47.014;7.652;2023-03-23T05:49:14;10.50;99.90
3752;DHT22;50827;47.014;7.652;2023-03-23T05:51:42;10.50;99.90
3752;DHT22;50827;47.014;7.652;2023-03-23T05:54:08;10.60;99.90
3752;DHT22;50827;47.014;7.652;2023-03-23T05:56:35;10.60;99.90
3752;DHT22;50827;47.014;7.652;2023-03-23T05:59:01;10.60;99.90
3752;DHT22;50827;47.014;7.652;2023-03-23T06:01:28;10.60;99.90
3752;DHT22;50827;47.014;7.652;2023-03-23T06:03:54;10.60;99.90
3752;DHT22;50827;47.014;7.652;2023-03-23T06:06:30;10.60;99.90
3752;DHT22;50827;47.014;7.652;2023-03-23T06:08:57;10.60;99.90
3752;DHT22;50827;47.014;7.652;2023-03-23T06:11:23;10.60;99.90
3752;DHT22;50827;47.014;7.652;2023-03-23T06:13:50;10.60;99.90
3752;DHT22;50827;47.014;7.652;2023-03-23T06:16:16;10.70;99.90
3752;DHT22;50827;47.014;7.652;2023-03-23T06:18:42;10.70;99.90
3752;DHT22;50827;47.014;7.652;2023-03-23T06:21:09;10.70;99.90
3752;DHT22;50827;47.014;7.652;2023-03-23T06:23:35;10.80;99.90
3752;DHT22;50827;47.014;7.652;2023-03-23T06:26:03;10.80;99.90
3752;DHT22;50827;47.014;7.652;2023-03-23T06:28:31;10.80;99.90
3752;DHT22;50827;47.014;7.652;2023-03-23T06:31:05;10.80;99.90
3752;DHT22;50827;47.014;7.652;2023-03-23T06:33:35;10.90;99.90
3752;DHT22;50827;47.014;7.652;2023-03-23T06:36:01;10.90;99.90
3752;DHT22;50827;47.014;7.652;2023-03-23T06:38:27;10.90;99.90
3752;DHT22;50827;47.014;7.652;2023-03-23T06:40:53;11.00;99.90
3752;DHT22;50827;47.014;7.652;2023-03-23T06:43:19;11.00;99.90
3752;DHT22;50827;47.014;7.652;2023-03-23T06:45:45;11.10;99.90
3752;DHT22;50827;47.014;7.652;2023-03-23T06:48:11;11.10;99.90
3752;DHT22;50827;47.014;7.652;2023-03-23T06:50:37;11.20;99.90
3752;DHT22;50827;47.014;7.652;2023-03-23T06:53:03;11.30;99.90
3752;DHT22;50827;47.014;7.652;2023-03-23T06:55:29;11.40;99.90
3752;DHT22;50827;47.014;7.652;2023-03-23T06:57:54;11.50;99.90
3752;DHT22;50827;47.014;7.652;2023-03-23T07:00:20;11.50;99.90
3752;DHT22;50827;47.014;7.652;2023-03-23T07:02:46;11.40;99.90
3752;DHT22;50827;47.014;7.652;2023-03-23T07:05:12;11.50;99.90
3752;DHT22;50827;47.014;7.652;2023-03-23T07:07:38;11.50;99.90
3752;DHT22;50827;47.014;7.652;2023-03-23T07:10:07;11.40;99.90
3752;DHT22;50827;47.014;7.652;2023-03-23T07:12:34;11.40;99.90
3752;DHT22;50827;47.014;7.652;2023-03-23T07:15:02;11.40;99.90
3752;DHT22;50827;47.014;7.652;2023-03-23T07:17:28;11.40;99.90
3752;DHT22;50827;47.014;7.652;2023-03-23T07:19:54;11.50;99.90
3752;DHT22;50827;47.014;7.652;2023-03-23T07:22:20;11.50;99.90
3752;DHT22;50827;47.014;7.652;2023-03-23T07:24:45;11.60;99.90
3752;DHT22;50827;47.014;7.652;2023-03-23T07:27:11;11.60;99.90
3752;DHT22;50827;47.014;7.652;2023-03-23T07:29:37;11.60;99.90
3752;DHT22;50827;47.014;7.652;2023-03-23T07:32:04;11.70;99.90
3752;DHT22;50827;47.014;7.652;2023-03-23T07:34:31;11.70;99.90
3752;DHT22;50827;47.014;7.652;2023-03-23T07:36:57;11.80;99.90
3752;DHT22;50827;47.014;7.652;2023-03-23T07:39:23;11.90;99.90
3752;DHT22;50827;47.014;7.652;2023-03-23T07:41:50;11.90;99.90
3752;DHT22;50827;47.014;7.652;2023-03-23T07:44:15;11.90;99.90
3752;DHT22;50827;47.014;7.652;2023-03-23T07:46:41;11.90;99.90
3752;DHT22;50827;47.014;7.652;2023-03-23T07:49:08;11.90;99.90
3752;DHT22;50827;47.014;7.652;2023-03-23T07:51:34;12.00;99.90
3752;DHT22;50827;47.014;7.652;2023-03-23T07:54:01;12.00;99.90
3752;DHT22;50827;47.014;7.652;2023-03-23T07:56:28;12.10;99.90
3752;DHT22;50827;47.014;7.652;2023-03-23T07:58:54;12.20;99.90
3752;DHT22;50827;47.014;7.652;2023-03-23T08:01:20;12.20;99.90
3752;DHT22;50827;47.014;7.652;2023-03-23T08:03:46;12.30;99.90
3752;DHT22;50827;47.014;7.652;2023-03-23T08:06:12;12.40;99.90
3752;DHT22;50827;47.014;7.652;2023-03-23T08:08:38;12.40;99.90
3752;DHT22;50827;47.014;7.652;2023-03-23T08:11:05;12.50;99.90
3752;DHT22;50827;47.014;7.652;2023-03-23T08:13:31;12.50;99.90
3752;DHT22;50827;47.014;7.652;2023-03-23T08:15:59;12.50;99.90
3752;DHT22;50827;47.014;7.652;2023-03-23T08:18:25;12.50;99.90
3752;DHT22;50827;47.014;7.652;2023-03-23T08:20:51;12.60;99.90
3752;DHT22;50827;47.014;7.652;2023-03-23T08:23:19;12.60;99.90
3752;DHT22;50827;47.014;7.652;2023-03-23T08:25:45;12.70;99.90
3752;DHT22;50827;47.014;7.652;2023-03-23T08:28:11;12.80;99.90
3752;DHT22;50827;47.014;7.652;2023-03-23T08:30:40;12.80;99.90
3752;DHT22;50827;47.014;7.652;2023-03-23T08:33:06;12.80;99.90
3752;DHT22;50827;47.014;7.652;2023-03-23T08:35:32;12.90;99.90
3752;DHT22;50827;47.014;7.652;2023-03-23T08:37:58;13.00;99.90
3752;DHT22;50827;47.014;7.652;2023-03-23T08:40:24;13.00;99.90
3752;DHT22;50827;47.014;7.652;2023-03-23T08:42:51;13.00;99.90
3752;DHT22;50827;47.014;7.652;2023-03-23T08:45:19;13.00;99.90
3752;DHT22;50827;47.014;7.652;2023-03-23T08:47:46;13.00;99.90
3752;DHT22;50827;47.014;7.652;2023-03-23T08:50:16;13.10;99.90
3752;DHT22;50827;47.014;7.652;2023-03-23T08:52:43;13.10;99.90
3752;DHT22;50827;47.014;7.652;2023-03-23T08:55:09;13.20;99.90
3752;DHT22;50827;47.014;7.652;2023-03-23T08:57:36;13.20;99.90
3752;DHT22;50827;47.014;7.652;2023-03-23T09:00:07;13.30;99.90
3752;DHT22;50827;47.014;7.652;2023-03-23T09:02:48;13.30;99.90
3752;DHT22;50827;47.014;7.652;2023-03-23T09:05:15;13.40;99.90
3752;DHT22;50827;47.014;7.652;2023-03-23T09:07:44;13.50;99.90
3752;DHT22;50827;47.014;7.652;2023-03-23T09:10:11;13.50;99.90
3752;DHT22;50827;47.014;7.652;2023-03-23T09:12:39;13.60;99.90
3752;DHT22;50827;47.014;7.652;2023-03-23T09:15:07;13.60;99.90
3752;DHT22;50827;47.014;7.652;2023-03-23T09:17:36;13.70;99.90
3752;DHT22;50827;47.014;7.652;2023-03-23T09:20:03;13.80;99.90
3752;DHT22;50827;47.014;7.652;2023-03-23T09:22:33;13.80;99.90
3752;DHT22;50827;47.014;7.652;2023-03-23T09:24:58;13.90;99.90
3752;DHT22;50827;47.014;7.652;2023-03-23T09:27:24;14.00;99.90
3752;DHT22;50827;47.014;7.652;2023-03-23T09:29:50;14.10;99.90
3752;DHT22;50827;47.014;7.652;2023-03-23T09:32:16;14.20;99.90
3752;DHT22;50827;47.014;7.652;2023-03-23T09:34:42;14.20;99.90
3752;DHT22;50827;47.014;7.652;2023-03-23T09:37:07;14.30;99.90
3752;DHT22;50827;47.014;7.652;2023-03-23T09:39:34;14.40;99.90
3752;DHT22;50827;47.014;7.652;2023-03-23T09:48:20;14.60;99.90
3752;DHT22;50827;47.014;7.652;2023-03-23T09:50:37;14.70;99.90
3752;DHT22;50827;47.014;7.652;2023-03-23T09:53:13;14.90;99.90
3752;DHT22;50827;47.014;7.652;2023-03-23T09:55:42;14.90;99.90
3752;DHT22;50827;47.014;7.652;2023-03-23T09:58:31;15.00;99.90
3752;DHT22;50827;47.014;7.652;2023-03-23T10:01:08;15.10;99.90
3752;DHT22;50827;47.014;7.652;2023-03-23T10:03:43;15.10;99.90
3752;DHT22;50827;47.014;7.652;2023-03-23T10:06:12;15.20;99.90
3752;DHT22;50827;47.014;7.652;2023-03-23T10:08:49;15.20;99.90
3752;DHT22;50827;47.014;7.652;2023-03-23T10:14:29;15.40;99.90
3752;DHT22;50827;47.014;7.652;2023-03-23T10:19:55;15.60;99.90
3752;DHT22;50827;47.014;7.652;2023-03-23T10:22:31;15.70;99.90
3752;DHT22;50827;47.014;7.652;2023-03-23T10:25:08;15.80;99.90
3752;DHT22;50827;47.014;7.652;2023-03-23T10:30:41;15.90;99.90
3752;DHT22;50827;47.014;7.652;2023-03-23T10:33:18;15.90;99.90
3752;DHT22;50827;47.014;7.652;2023-03-23T10:36:14;16.00;99.90
3752;DHT22;50827;47.014;7.652;2023-03-23T10:38:48;16.00;99.90
3752;DHT22;50827;47.014;7.652;2023-03-23T10:41:17;16.00;99.90
3752;DHT22;50827;47.014;7.652;2023-03-23T10:43:44;16.00;99.90
3752;DHT22;50827;47.014;7.652;2023-03-23T10:49:06;16.10;99.90
3752;DHT22;50827;47.014;7.652;2023-03-23T10:51:41;16.30;99.90
3752;DHT22;50827;47.014;7.652;2023-03-23T10:54:07;16.30;99.90
3752;DHT22;50827;47.014;7.652;2023-03-23T10:56:41;16.40;99.90
3752;DHT22;50827;47.014;7.652;2023-03-23T10:59:20;16.50;99.90
3752;DHT22;50827;47.014;7.652;2023-03-23T11:01:50;16.50;99.90
3752;DHT22;50827;47.014;7.652;2023-03-23T11:04:18;16.60;99.90
3752;DHT22;50827;47.014;7.652;2023-03-23T11:06:58;16.60;99.90
3752;DHT22;50827;47.014;7.652;2023-03-23T11:09:50;16.70;99.90
3752;DHT22;50827;47.014;7.652;2023-03-23T11:12:18;16.80;99.90
3752;DHT22;50827;47.014;7.652;2023-03-23T11:14:44;16.90;99.90
3752;DHT22;50827;47.014;7.652;2023-03-23T11:17:24;17.00;99.90
3752;DHT22;50827;47.014;7.652;2023-03-23T11:19:50;17.10;99.90
3752;DHT22;50827;47.014;7.652;2023-03-23T11:22:24;17.20;99.90
3752;DHT22;50827;47.014;7.652;2023-03-23T11:24:59;17.20;99.90
3752;DHT22;50827;47.014;7.652;2023-03-23T11:27:26;17.30;99.90
3752;DHT22;50827;47.014;7.652;2023-03-23T11:30:00;17.30;99.90
3752;DHT22;50827;47.014;7.652;2023-03-23T11:32:29;17.40;99.90
3752;DHT22;50827;47.014;7.652;2023-03-23T11:34:59;17.40;99.90
3752;DHT22;50827;47.014;7.652;2023-03-23T11:37:33;17.50;99.90
3752;DHT22;50827;47.014;7.652;2023-03-23T11:58:43;17.70;99.90
3752;DHT22;50827;47.014;7.652;2023-03-23T12:18:43;18.00;99.90
3752;DHT22;50827;47.014;7.652;2023-03-23T12:29:39;18.10;99.90
3752;DHT22;50827;47.014;7.652;2023-03-23T12:32:29;18.10;99.90
3752;DHT22;50827;47.014;7.652;2023-03-23T12:38:07;18.00;99.90
3752;DHT22;50827;47.014;7.652;2023-03-23T12:48:33;17.90;99.90
3752;DHT22;50827;47.014;7.652;2023-03-23T12:54:07;17.70;99.90
3752;DHT22;50827;47.014;7.652;2023-03-23T12:57:04;17.70;99.90
3752;DHT22;50827;47.014;7.652;2023-03-23T12:59:47;17.70;99.90
3752;DHT22;50827;47.014;7.652;2023-03-23T13:02:35;17.70;99.90
3752;DHT22;50827;47.014;7.652;2023-03-23T13:05:08;17.80;99.90
3752;DHT22;50827;47.014;7.652;2023-03-23T13:07:41;17.80;99.90
3752;DHT22;50827;47.014;7.652;2023-03-23T13:10:48;17.80;99.90
3752;DHT22;50827;47.014;7.652;2023-03-23T13:13:19;17.70;99.90
3752;DHT22;50827;47.014;7.652;2023-03-23T13:15:53;17.70;99.90
3752;DHT22;50827;47.014;7.652;2023-03-23T13:18:29;17.60;99.90
3752;DHT22;50827;47.014;7.652;2023-03-23T13:21:21;17.60;99.90
3752;DHT22;50827;47.014;7.652;2023-03-23T13:23:57;17.60;99.90
3752;DHT22;50827;47.014;7.652;2023-03-23T13:26:24;17.50;99.90
3752;DHT22;50827;47.014;7.652;2023-03-23T13:31:30;17.40;99.90
3752;DHT22;50827;47.014;7.652;2023-03-23T13:36:42;17.40;99.90
3752;DHT22;50827;47.014;7.652;2023-03-23T13:39:22;17.40;99.90
3752;DHT22;50827;47.014;7.652;2023-03-23T13:50:00;17.30;99.90
3752;DHT22;50827;47.014;7.652;2023-03-23T13:55:39;17.30;99.90
3752;DHT22;50827;47.014;7.652;2023-03-23T14:03:15;17.40;99.90
3752;DHT22;50827;47.014;7.652;2023-03-23T14:11:01;17.40;99.90
3752;DHT22;50827;47.014;7.652;2023-03-23T14:13:44;17.40;99.90
3752;DHT22;50827;47.014;7.652;2023-03-23T14:16:20;17.40;99.90
3752;DHT22;50827;47.014;7.652;2023-03-23T14:18:58;17.40;99.90
3752;DHT22;50827;47.014;7.652;2023-03-23T14:21:37;17.40;99.90
3752;DHT22;50827;47.014;7.652;2023-03-23T14:27:19;17.40;99.90
3752;DHT22;50827;47.014;7.652;2023-03-23T14:29:46;17.40;99.90
3752;DHT22;50827;47.014;7.652;2023-03-23T14:32:23;17.40;99.90
3752;DHT22;50827;47.014;7.652;2023-03-23T14:34:52;17.30;99.90
3752;DHT22;50827;47.014;7.652;2023-03-23T14:37:18;17.20;99.90
3752;DHT22;50827;47.014;7.652;2023-03-23T14:39:48;17.20;99.90
3752;DHT22;50827;47.014;7.652;2023-03-23T14:42:16;17.20;99.90
3752;DHT22;50827;47.014;7.652;2023-03-23T14:44:44;17.20;99.90
3752;DHT22;50827;47.014;7.652;2023-03-23T14:49:53;17.10;99.90
3752;DHT22;50827;47.014;7.652;2023-03-23T14:52:22;17.10;99.90
3752;DHT22;50827;47.014;7.652;2023-03-23T14:54:49;17.10;99.90
3752;DHT22;50827;47.014;7.652;2023-03-23T14:57:17;17.00;99.90
3752;DHT22;50827;47.014;7.652;2023-03-23T14:59:45;17.00;99.90
3752;DHT22;50827;47.014;7.652;2023-03-23T15:04:43;16.90;99.90
3752;DHT22;50827;47.014;7.652;2023-03-23T15:07:11;16.90;99.90
3752;DHT22;50827;47.014;7.652;2023-03-23T15:09:40;16.80;99.90
3752;DHT22;50827;47.014;7.652;2023-03-23T15:12:19;16.80;99.90
3752;DHT22;50827;47.014;7.652;2023-03-23T15:14:55;16.80;99.90
3752;DHT22;50827;47.014;7.652;2023-03-23T15:17:27;16.90;99.90
3752;DHT22;50827;47.014;7.652;2023-03-23T15:19:54;16.80;99.90
3752;DHT22;50827;47.014;7.652;2023-03-23T15:22:26;16.90;99.90
3752;DHT22;50827;47.014;7.652;2023-03-23T15:25:03;16.90;99.90
3752;DHT22;50827;47.014;7.652;2023-03-23T15:27:42;16.90;99.90
3752;DHT22;50827;47.014;7.652;2023-03-23T15:32:44;16.90;99.90
3752;DHT22;50827;47.014;7.652;2023-03-23T15:35:38;17.00;99.90
3752;DHT22;50827;47.014;7.652;2023-03-23T15:38:06;16.90;99.90
3752;DHT22;50827;47.014;7.652;2023-03-23T15:40:38;16.90;99.90
3752;DHT22;50827;47.014;7.652;2023-03-23T15:43:27;16.90;99.90
3752;DHT22;50827;47.014;7.652;2023-03-23T15:45:54;16.90;99.90
3752;DHT22;50827;47.014;7.652;2023-03-23T15:48:22;17.00;99.90
3752;DHT22;50827;47.014;7.652;2023-03-23T15:50:49;17.00;99.90
3752;DHT22;50827;47.014;7.652;2023-03-23T15:53:31;16.90;99.90
3752;DHT22;50827;47.014;7.652;2023-03-23T15:55:59;16.90;99.90
3752;DHT22;50827;47.014;7.652;2023-03-23T15:58:26;16.90;99.90
3752;DHT22;50827;47.014;7.652;2023-03-23T16:00:53;16.90;99.90
3752;DHT22;50827;47.014;7.652;2023-03-23T16:03:23;16.90;99.90
3752;DHT22;50827;47.014;7.652;2023-03-23T16:05:57;16.90;99.90
3752;DHT22;50827;47.014;7.652;2023-03-23T16:08:25;16.90;99.90
3752;DHT22;50827;47.014;7.652;2023-03-23T16:10:52;16.80;99.90
3752;DHT22;50827;47.014;7.652;2023-03-23T16:13:19;16.80;99.90
3752;DHT22;50827;47.014;7.652;2023-03-23T16:15:46;16.80;99.90
3752;DHT22;50827;47.014;7.652;2023-03-23T16:18:17;16.90;99.90
3752;DHT22;50827;47.014;7.652;2023-03-23T16:20:45;16.80;99.90
3752;DHT22;50827;47.014;7.652;2023-03-23T16:23:12;16.90;99.90
3752;DHT22;50827;47.014;7.652;2023-03-23T16:25:39;16.80;99.90
3752;DHT22;50827;47.014;7.652;2023-03-23T16:28:11;16.80;99.90
3752;DHT22;50827;47.014;7.652;2023-03-23T16:30:40;16.60;99.90
3752;DHT22;50827;47.014;7.652;2023-03-23T16:33:07;16.60;99.90
3752;DHT22;50827;47.014;7.652;2023-03-23T16:35:34;16.70;99.90
3752;DHT22;50827;47.014;7.652;2023-03-23T16:38:02;16.60;99.90
3752;DHT22;50827;47.014;7.652;2023-03-23T16:40:35;16.70;99.90
3752;DHT22;50827;47.014;7.652;2023-03-23T16:43:02;16.60;99.90
3752;DHT22;50827;47.014;7.652;2023-03-23T16:45:35;16.60;99.90
3752;DHT22;50827;47.014;7.652;2023-03-23T16:48:03;16.60;99.90
3752;DHT22;50827;47.014;7.652;2023-03-23T16:50:31;16.60;99.90
3752;DHT22;50827;47.014;7.652;2023-03-23T16:52:58;16.50;99.90
3752;DHT22;50827;47.014;7.652;2023-03-23T16:55:25;16.50;99.90
3752;DHT22;50827;47.014;7.652;2023-03-23T16:57:53;16.60;99.90
3752;DHT22;50827;47.014;7.652;2023-03-23T17:00:34;16.60;99.90
3752;DHT22;50827;47.014;7.652;2023-03-23T17:03:01;16.60;99.90
3752;DHT22;50827;47.014;7.652;2023-03-23T17:05:28;16.60;99.90
3752;DHT22;50827;47.014;7.652;2023-03-23T17:07:55;16.60;99.90
3752;DHT22;50827;47.014;7.652;2023-03-23T17:10:24;16.60;99.90
3752;DHT22;50827;47.014;7.652;2023-03-23T17:12:53;16.50;99.90
3752;DHT22;50827;47.014;7.652;2023-03-23T17:15:20;16.60;99.90
3752;DHT22;50827;47.014;7.652;2023-03-23T17:17:47;16.50;99.90
3752;DHT22;50827;47.014;7.652;2023-03-23T17:20:14;16.50;99.90
3752;DHT22;50827;47.014;7.652;2023-03-23T17:22:41;16.50;99.90
3752;DHT22;50827;47.014;7.652;2023-03-23T17:25:08;16.40;99.90
3752;DHT22;50827;47.014;7.652;2023-03-23T17:27:35;16.40;99.90
3752;DHT22;50827;47.014;7.652;2023-03-23T17:30:07;16.40;99.90
3752;DHT22;50827;47.014;7.652;2023-03-23T17:32:34;16.40;99.90
3752;DHT22;50827;47.014;7.652;2023-03-23T17:35:03;16.40;99.90
3752;DHT22;50827;47.014;7.652;2023-03-23T17:37:31;16.40;99.90
3752;DHT22;50827;47.014;7.652;2023-03-23T17:39:58;16.40;99.90
3752;DHT22;50827;47.014;7.652;2023-03-23T17:42:25;16.20;99.90
3752;DHT22;50827;47.014;7.652;2023-03-23T17:44:52;16.20;99.90
3752;DHT22;50827;47.014;7.652;2023-03-23T17:47:19;16.20;99.90
3752;DHT22;50827;47.014;7.652;2023-03-23T17:49:46;16.20;99.90
3752;DHT22;50827;47.014;7.652;2023-03-23T17:52:13;16.10;99.90
3752;DHT22;50827;47.014;7.652;2023-03-23T17:54:39;16.00;99.90
3752;DHT22;50827;47.014;7.652;2023-03-23T17:57:06;16.00;99.90
3752;DHT22;50827;47.014;7.652;2023-03-23T17:59:33;16.00;99.90
3752;DHT22;50827;47.014;7.652;2023-03-23T18:02:00;15.90;99.90
3752;DHT22;50827;47.014;7.652;2023-03-23T18:04:27;15.80;99.90
3752;DHT22;50827;47.014;7.652;2023-03-23T18:06:57;15.70;99.90
3752;DHT22;50827;47.014;7.652;2023-03-23T18:09:24;15.60;99.90
3752;DHT22;50827;47.014;7.652;2023-03-23T18:11:51;15.60;99.90